createdAt,value
2023-11-23T00:04:31.195Z,81
2023-11-23T00:09:38.571Z,80.5
2023-11-23T00:14:45.909Z,82
2023-11-23T00:19:53.239Z,81.5
2023-11-23T00:25:00.622Z,81
2023-11-23T00:30:09.035Z,81
2023-11-23T00:35:15.321Z,82
2023-11-23T00:40:22.675Z,82.5
2023-11-23T00:45:30.025Z,83
2023-11-23T00:50:37.454Z,83
2023-11-23T00:55:44.742Z,83.5
2023-11-23T01:00:52.125Z,82.5
2023-11-23T01:05:59.463Z,81
2023-11-23T01:11:06.799Z,81
2023-11-23T01:16:14.192Z,81
2023-11-23T01:23:33.228Z,80.5
2023-11-23T01:28:40.613Z,80.5
2023-11-23T01:33:48.049Z,80.5
2023-11-23T01:38:55.353Z,80
2023-11-23T01:44:02.673Z,80
2023-11-23T01:49:10.032Z,80
2023-11-23T01:54:17.404Z,79
2023-11-23T01:59:24.735Z,79
2023-11-23T02:04:32.157Z,78.5
2023-11-23T02:09:39.442Z,78
2023-11-23T02:14:46.872Z,77.5
2023-11-23T02:19:54.170Z,77.5
2023-11-23T02:25:01.524Z,77
2023-11-23T02:30:08.948Z,76.5
2023-11-23T02:35:16.229Z,73.5
2023-11-23T02:40:23.581Z,75.5
2023-11-23T02:45:30.972Z,75
2023-11-23T02:55:45.660Z,75.5
2023-11-23T03:00:53.055Z,75
2023-11-23T03:06:00.406Z,75.5
2023-11-23T03:11:07.742Z,75.5
2023-11-23T03:16:15.098Z,75.5
2023-11-23T03:21:22.485Z,76
2023-11-23T03:26:29.775Z,74.5
2023-11-23T03:31:37.179Z,72
2023-11-23T03:36:44.520Z,74
2023-11-23T03:41:51.856Z,72
2023-11-23T03:46:59.217Z,68.5
2023-11-23T03:52:06.575Z,74
2023-11-23T03:57:13.935Z,71.5
2023-11-23T04:02:21.382Z,72.5
2023-11-23T04:07:28.658Z,71.5
2023-11-23T04:12:35.998Z,69
2023-11-23T04:17:43.390Z,67.5
2023-11-23T04:22:50.703Z,68.5
2023-11-23T04:27:58.051Z,67
2023-11-23T04:33:05.489Z,68
2023-11-23T04:38:12.789Z,66.5
2023-11-23T04:43:20.147Z,69.5
2023-11-23T04:48:27.530Z,70.5
2023-11-23T04:53:34.847Z,70
2023-11-23T04:58:42.209Z,67.5
2023-11-23T05:03:49.767Z,68.5
2023-11-23T05:08:56.928Z,68.5
2023-11-23T05:14:04.274Z,69
2023-11-23T05:19:11.616Z,66
2023-11-23T05:24:18.993Z,64.5
2023-11-23T05:29:26.342Z,63
2023-11-23T05:34:33.708Z,63.5
2023-11-23T05:39:43.310Z,64
2023-11-23T05:44:48.444Z,62
2023-11-23T05:49:55.774Z,63
2023-11-23T05:55:03.136Z,62
2023-11-23T06:00:10.509Z,64
2023-11-23T06:05:17.866Z,62.5
2023-11-23T06:10:26.870Z,63.5
2023-11-23T06:15:32.583Z,63
2023-11-23T06:20:39.913Z,64
2023-11-23T06:25:47.250Z,61.5
2023-11-23T06:30:54.617Z,59.5
2023-11-23T06:36:01.983Z,63
2023-11-23T06:41:09.347Z,62
2023-11-23T06:46:16.729Z,63
2023-11-23T06:51:24.070Z,61.5
2023-11-23T06:56:31.373Z,62
2023-11-23T07:01:38.835Z,60
2023-11-23T07:06:46.114Z,60
2023-11-23T07:11:53.481Z,60.5
2023-11-23T07:17:00.808Z,63.5
2023-11-23T07:22:08.152Z,60
2023-11-23T07:27:15.566Z,62
2023-11-23T07:32:22.883Z,61.5
2023-11-23T07:37:30.232Z,60
2023-11-23T07:42:37.634Z,62
2023-11-23T07:47:45.193Z,65.5
2023-11-23T07:52:52.305Z,65
2023-11-23T07:57:59.707Z,66
2023-11-23T08:03:07.058Z,66.5
2023-11-23T08:08:14.389Z,64.5
2023-11-23T08:13:21.751Z,63.5
2023-11-23T08:18:36.388Z,65
2023-11-23T08:23:36.438Z,62.5
2023-11-23T08:28:43.805Z,62.5
2023-11-23T08:33:51.269Z,60.5
2023-11-23T08:38:58.541Z,61.5
2023-11-23T08:44:05.869Z,62
2023-11-23T08:49:13.233Z,60.5
2023-11-23T08:54:20.637Z,61.5
2023-11-23T08:59:27.948Z,60
2023-11-23T09:04:40.385Z,58.5
2023-11-23T09:09:42.657Z,59
2023-11-23T09:14:50.263Z,55.5
2023-11-23T09:19:57.385Z,58
2023-11-23T09:25:04.727Z,56.5
2023-11-23T09:30:12.073Z,56
2023-11-23T09:35:19.450Z,58
2023-11-23T09:40:26.796Z,62.5
2023-11-23T09:45:34.169Z,60
2023-11-23T09:50:42.702Z,59.5
2023-11-23T09:55:48.844Z,59.5
2023-11-23T10:00:56.213Z,60.5
2023-11-23T10:06:03.640Z,59.5
2023-11-23T10:11:10.945Z,57
2023-11-23T10:16:18.357Z,56.5
2023-11-23T10:21:25.680Z,55.5
2023-11-23T10:26:32.993Z,53.5
2023-11-23T10:31:40.356Z,49.5
2023-11-23T10:36:47.710Z,49.5
2023-11-23T10:41:55.130Z,46.5
2023-11-23T10:47:02.455Z,46.5
2023-11-23T10:52:09.813Z,45.5
2023-11-23T10:57:17.210Z,44.5
2023-11-23T11:02:24.532Z,37
2023-11-23T11:07:31.846Z,35.5
2023-11-23T11:12:39.375Z,42.5
2023-11-23T11:17:46.577Z,44.5
2023-11-23T11:22:53.966Z,44.5
2023-11-23T11:28:01.297Z,43
2023-11-23T11:33:08.707Z,44.5
2023-11-23T11:38:15.987Z,50
2023-11-23T11:43:23.341Z,46.5
2023-11-23T11:48:30.788Z,48.5
2023-11-23T11:53:38.060Z,47.5
2023-11-23T11:58:45.412Z,48.5
2023-11-23T12:09:00.165Z,45.5
2023-11-23T12:14:07.515Z,45
2023-11-23T12:19:14.868Z,50.5
2023-11-23T12:24:22.280Z,53.5
2023-11-23T12:29:29.581Z,54
2023-11-23T12:34:36.932Z,54.5
2023-11-23T12:39:44.344Z,50
2023-11-23T12:44:51.698Z,41
2023-11-23T12:55:06.354Z,36
2023-11-23T13:00:13.783Z,30
2023-11-23T13:05:21.088Z,35
2023-11-23T13:10:28.423Z,38
2023-11-23T13:15:35.812Z,41
2023-11-23T13:20:44.339Z,42
2023-11-23T13:25:50.500Z,40.5
2023-11-23T13:30:57.891Z,41
2023-11-23T13:36:05.210Z,42
2023-11-23T13:41:12.565Z,43
2023-11-23T13:46:19.960Z,44
2023-11-23T13:51:29.480Z,43
2023-11-23T13:56:34.611Z,43.5
2023-11-23T14:01:42.149Z,45.5
2023-11-23T14:06:49.347Z,48
2023-11-23T14:11:56.710Z,47.5
2023-11-23T14:17:04.070Z,44.5
2023-11-23T14:22:11.426Z,47.5
2023-11-23T14:27:18.771Z,48.5
2023-11-23T14:32:26.160Z,45.5
2023-11-23T14:37:33.474Z,43.5
2023-11-23T14:42:44.175Z,45
2023-11-23T14:47:48.263Z,45.5
2023-11-23T14:52:55.572Z,46
2023-11-23T14:58:02.903Z,48.5
2023-11-23T15:03:10.364Z,46
2023-11-23T15:08:17.620Z,40
2023-11-23T15:13:29.836Z,40.5
2023-11-23T15:18:32.436Z,44
2023-11-23T15:23:39.678Z,43.5
2023-11-23T15:28:47.057Z,40.5
2023-11-23T15:33:54.415Z,44
2023-11-23T15:39:01.787Z,44.5
2023-11-23T15:44:09.122Z,44
2023-11-23T15:49:16.475Z,46
2023-11-23T15:54:23.812Z,45
2023-11-23T15:59:31.187Z,43
2023-11-23T16:04:38.573Z,46
2023-11-23T16:09:45.947Z,44
2023-11-23T16:14:55.043Z,43
2023-11-23T16:20:00.607Z,44
2023-11-23T16:25:07.937Z,43.5
2023-11-23T16:30:15.613Z,44
2023-11-23T16:35:22.694Z,44.5
2023-11-23T16:40:30.021Z,45.5
2023-11-23T16:45:37.396Z,39
2023-11-23T16:50:44.716Z,40.5
2023-11-23T16:55:52.077Z,43
2023-11-23T17:00:59.434Z,41.5
2023-11-23T17:06:06.819Z,43.5
2023-11-23T17:11:14.159Z,49
2023-11-23T17:16:21.545Z,46.5
2023-11-23T17:21:28.887Z,42.5
2023-11-23T17:26:36.222Z,43
2023-11-23T17:31:43.576Z,45.5
2023-11-23T17:36:50.949Z,44.5
2023-11-23T17:41:58.317Z,43.5
2023-11-23T17:47:05.669Z,40
2023-11-23T17:52:13.009Z,45.5
2023-11-23T17:57:20.431Z,45.5
2023-11-23T18:02:27.791Z,43.5
2023-11-23T18:07:35.087Z,44
2023-11-23T18:12:42.485Z,47.5
2023-11-23T18:17:49.816Z,47
2023-11-23T18:22:57.155Z,47
2023-11-23T18:30:16.227Z,48
2023-11-23T18:35:23.628Z,43
2023-11-23T18:40:30.933Z,48
2023-11-23T18:45:38.323Z,45.5
2023-11-23T18:50:45.681Z,44
2023-11-23T18:55:52.996Z,44.5
2023-11-23T19:01:00.565Z,43
2023-11-23T19:06:07.733Z,43.5
2023-11-23T19:11:15.250Z,46
2023-11-23T19:16:22.471Z,45.5
2023-11-23T19:21:29.801Z,46.5
2023-11-23T19:26:37.157Z,46
2023-11-23T19:31:44.508Z,44
2023-11-23T19:36:51.868Z,46
2023-11-23T19:41:59.202Z,43.5
2023-11-23T19:47:06.585Z,48.5
2023-11-23T19:52:13.954Z,43
2023-11-23T19:57:21.290Z,46
2023-11-23T20:02:28.695Z,44
2023-11-23T20:12:43.390Z,45.5
2023-11-23T20:17:50.743Z,43.5
2023-11-23T20:22:58.076Z,44.5
2023-11-23T20:28:05.420Z,45
2023-11-23T20:33:13.463Z,43.5
2023-11-23T20:38:20.126Z,43.5
2023-11-23T20:43:29.444Z,43.5
2023-11-23T20:48:34.877Z,45
2023-11-23T20:53:42.222Z,40
2023-11-23T20:58:49.617Z,44.5
2023-11-23T21:03:57.029Z,43
2023-11-23T21:09:04.276Z,41
2023-11-23T21:14:11.626Z,46
2023-11-23T21:19:19.063Z,45
2023-11-23T21:24:26.352Z,47
2023-11-23T21:29:33.751Z,47
2023-11-23T21:34:41.053Z,45
2023-11-23T21:39:48.466Z,49
2023-11-23T21:44:55.762Z,47.5
2023-11-23T21:50:03.130Z,49
2023-11-23T21:55:10.518Z,47.5
2023-11-23T22:00:17.879Z,48
2023-11-23T22:05:25.169Z,47.5
2023-11-23T22:10:32.591Z,49
2023-11-23T22:15:39.932Z,46.5
2023-11-23T22:20:47.269Z,46.5
2023-11-23T22:25:54.619Z,48.5
2023-11-23T22:31:02.076Z,46
2023-11-23T22:36:09.319Z,46
2023-11-23T22:41:16.698Z,49
2023-11-23T22:46:24.038Z,47.5
2023-11-23T22:51:31.419Z,48
2023-11-23T22:56:38.787Z,50.5
2023-11-23T23:01:46.218Z,52.5
2023-11-23T23:06:53.489Z,52
2023-11-23T23:12:00.814Z,51
2023-11-23T23:17:08.199Z,49
2023-11-23T23:22:20.413Z,48.5
2023-11-23T23:27:22.930Z,44.5
2023-11-23T23:32:30.264Z,42.5
2023-11-23T23:37:37.625Z,41.5
2023-11-23T23:42:44.976Z,44.5
2023-11-23T23:47:52.301Z,44.5
2023-11-23T23:52:59.679Z,45.5
2023-11-23T23:58:07.044Z,44.5
